sensor_id;sensor_type;location;lat;lon;timestamp;P1;durP1;ratioP1;P2;durP2;ratioP2
16246;SDS011;8231;50.866;7.944;2022-10-16T00:01:05;5.68;;;5.18;;
16246;SDS011;8231;50.866;7.944;2022-10-16T00:03:34;8.95;;;4.57;;
16246;SDS011;8231;50.866;7.944;2022-10-16T00:06:03;11.90;;;4.80;;
16246;SDS011;8231;50.866;7.944;2022-10-16T00:08:31;12.02;;;5.50;;
16246;SDS011;8231;50.866;7.944;2022-10-16T00:11:00;6.57;;;4.30;;
16246;SDS011;8231;50.866;7.944;2022-10-16T00:13:29;6.28;;;5.00;;
16246;SDS011;8231;50.866;7.944;2022-10-16T00:15:58;7.43;;;4.63;;
16246;SDS011;8231;50.866;7.944;2022-10-16T00:18:28;7.18;;;4.38;;
16246;SDS011;8231;50.866;7.944;2022-10-16T00:21:01;9.40;;;4.95;;
16246;SDS011;8231;50.866;7.944;2022-10-16T00:23:50;7.25;;;4.65;;
16246;SDS011;8231;50.866;7.944;2022-10-16T00:26:18;11.30;;;3.92;;
16246;SDS011;8231;50.866;7.944;2022-10-16T00:28:47;9.80;;;3.92;;
16246;SDS011;8231;50.866;7.944;2022-10-16T00:31:16;8.95;;;3.63;;
16246;SDS011;8231;50.866;7.944;2022-10-16T00:33:47;5.70;;;5.05;;
16246;SDS011;8231;50.866;7.944;2022-10-16T00:36:16;7.05;;;5.50;;
16246;SDS011;8231;50.866;7.944;2022-10-16T00:38:45;5.25;;;3.92;;
16246;SDS011;8231;50.866;7.944;2022-10-16T00:41:14;7.40;;;4.00;;
16246;SDS011;8231;50.866;7.944;2022-10-16T00:43:44;5.93;;;3.65;;
16246;SDS011;8231;50.866;7.944;2022-10-16T00:46:15;5.85;;;4.78;;
16246;SDS011;8231;50.866;7.944;2022-10-16T00:48:48;4.80;;;3.97;;
16246;SDS011;8231;50.866;7.944;2022-10-16T00:51:21;5.47;;;4.13;;
16246;SDS011;8231;50.866;7.944;2022-10-16T00:53:53;7.70;;;3.40;;
16246;SDS011;8231;50.866;7.944;2022-10-16T00:56:22;8.20;;;3.75;;
16246;SDS011;8231;50.866;7.944;2022-10-16T00:58:50;5.78;;;3.72;;
16246;SDS011;8231;50.866;7.944;2022-10-16T01:01:19;6.80;;;3.50;;
16246;SDS011;8231;50.866;7.944;2022-10-16T01:03:52;5.22;;;3.15;;
16246;SDS011;8231;50.866;7.944;2022-10-16T01:06:22;6.53;;;3.47;;
16246;SDS011;8231;50.866;7.944;2022-10-16T01:08:56;7.55;;;3.40;;
16246;SDS011;8231;50.866;7.944;2022-10-16T01:11:49;4.60;;;2.88;;
16246;SDS011;8231;50.866;7.944;2022-10-16T01:14:26;6.63;;;3.80;;
16246;SDS011;8231;50.866;7.944;2022-10-16T01:17:03;3.63;;;2.70;;
16246;SDS011;8231;50.866;7.944;2022-10-16T01:19:44;3.78;;;2.70;;
16246;SDS011;8231;50.866;7.944;2022-10-16T01:22:25;6.45;;;4.28;;
16246;SDS011;8231;50.866;7.944;2022-10-16T01:25:00;4.35;;;3.35;;
16246;SDS011;8231;50.866;7.944;2022-10-16T01:27:37;3.90;;;3.33;;
16246;SDS011;8231;50.866;7.944;2022-10-16T01:30:58;5.85;;;3.60;;
16246;SDS011;8231;50.866;7.944;2022-10-16T01:33:28;5.85;;;3.15;;
16246;SDS011;8231;50.866;7.944;2022-10-16T01:36:02;7.45;;;3.08;;
16246;SDS011;8231;50.866;7.944;2022-10-16T01:38:36;6.25;;;3.58;;
16246;SDS011;8231;50.866;7.944;2022-10-16T01:41:06;5.18;;;4.07;;
16246;SDS011;8231;50.866;7.944;2022-10-16T01:43:40;7.53;;;4.60;;
16246;SDS011;8231;50.866;7.944;2022-10-16T01:46:13;5.53;;;4.03;;
16246;SDS011;8231;50.866;7.944;2022-10-16T01:48:43;6.53;;;4.75;;
16246;SDS011;8231;50.866;7.944;2022-10-16T01:51:11;5.15;;;4.38;;
16246;SDS011;8231;50.866;7.944;2022-10-16T01:53:41;7.63;;;5.15;;
16246;SDS011;8231;50.866;7.944;2022-10-16T01:56:12;9.10;;;4.65;;
16246;SDS011;8231;50.866;7.944;2022-10-16T01:58:44;7.13;;;4.57;;
16246;SDS011;8231;50.866;7.944;2022-10-16T02:01:17;7.63;;;4.85;;
16246;SDS011;8231;50.866;7.944;2022-10-16T02:03:48;5.97;;;4.80;;
16246;SDS011;8231;50.866;7.944;2022-10-16T02:06:19;6.22;;;5.63;;
16246;SDS011;8231;50.866;7.944;2022-10-16T02:08:48;8.13;;;4.90;;
16246;SDS011;8231;50.866;7.944;2022-10-16T02:11:16;8.88;;;5.93;;
16246;SDS011;8231;50.866;7.944;2022-10-16T02:13:46;7.13;;;5.78;;
16246;SDS011;8231;50.866;7.944;2022-10-16T02:16:18;8.55;;;5.90;;
16246;SDS011;8231;50.866;7.944;2022-10-16T02:18:46;8.75;;;7.38;;
16246;SDS011;8231;50.866;7.944;2022-10-16T02:21:16;9.32;;;5.18;;
16246;SDS011;8231;50.866;7.944;2022-10-16T02:23:51;7.85;;;6.05;;
16246;SDS011;8231;50.866;7.944;2022-10-16T02:26:25;14.80;;;6.70;;
16246;SDS011;8231;50.866;7.944;2022-10-16T02:28:59;34.95;;;7.22;;
16246;SDS011;8231;50.866;7.944;2022-10-16T02:31:31;7.82;;;5.75;;
16246;SDS011;8231;50.866;7.944;2022-10-16T02:34:02;9.45;;;6.35;;
16246;SDS011;8231;50.866;7.944;2022-10-16T02:36:33;7.95;;;5.85;;
16246;SDS011;8231;50.866;7.944;2022-10-16T02:39:03;8.77;;;5.97;;
16246;SDS011;8231;50.866;7.944;2022-10-16T02:41:32;6.32;;;5.63;;
16246;SDS011;8231;50.866;7.944;2022-10-16T02:44:02;6.57;;;5.45;;
16246;SDS011;8231;50.866;7.944;2022-10-16T02:46:31;7.32;;;5.38;;
16246;SDS011;8231;50.866;7.944;2022-10-16T02:48:59;6.95;;;5.03;;
16246;SDS011;8231;50.866;7.944;2022-10-16T02:51:27;8.07;;;4.95;;
16246;SDS011;8231;50.866;7.944;2022-10-16T02:53:55;6.32;;;4.63;;
16246;SDS011;8231;50.866;7.944;2022-10-16T02:56:23;6.80;;;4.95;;
16246;SDS011;8231;50.866;7.944;2022-10-16T02:58:51;6.70;;;4.90;;
16246;SDS011;8231;50.866;7.944;2022-10-16T03:01:21;6.97;;;4.53;;
16246;SDS011;8231;50.866;7.944;2022-10-16T03:03:50;6.75;;;4.20;;
16246;SDS011;8231;50.866;7.944;2022-10-16T03:06:18;6.13;;;4.72;;
16246;SDS011;8231;50.866;7.944;2022-10-16T03:08:46;5.55;;;4.40;;
16246;SDS011;8231;50.866;7.944;2022-10-16T03:11:14;7.25;;;3.67;;
16246;SDS011;8231;50.866;7.944;2022-10-16T03:13:42;5.47;;;4.07;;
16246;SDS011;8231;50.866;7.944;2022-10-16T03:16:10;8.13;;;4.28;;
16246;SDS011;8231;50.866;7.944;2022-10-16T03:18:39;5.30;;;4.20;;
16246;SDS011;8231;50.866;7.944;2022-10-16T03:21:08;7.35;;;4.13;;
16246;SDS011;8231;50.866;7.944;2022-10-16T03:23:36;4.40;;;3.45;;
16246;SDS011;8231;50.866;7.944;2022-10-16T03:26:04;7.22;;;3.53;;
16246;SDS011;8231;50.866;7.944;2022-10-16T03:28:32;9.93;;;4.28;;
16246;SDS011;8231;50.866;7.944;2022-10-16T03:31:00;8.48;;;4.75;;
16246;SDS011;8231;50.866;7.944;2022-10-16T03:33:28;6.07;;;4.60;;
16246;SDS011;8231;50.866;7.944;2022-10-16T03:35:58;7.70;;;4.80;;
16246;SDS011;8231;50.866;7.944;2022-10-16T03:38:26;11.57;;;4.55;;
16246;SDS011;8231;50.866;7.944;2022-10-16T03:40:55;8.25;;;5.10;;
16246;SDS011;8231;50.866;7.944;2022-10-16T03:43:23;7.90;;;4.45;;
16246;SDS011;8231;50.866;7.944;2022-10-16T03:45:51;6.57;;;4.03;;
16246;SDS011;8231;50.866;7.944;2022-10-16T03:48:19;4.18;;;3.83;;
16246;SDS011;8231;50.866;7.944;2022-10-16T03:50:47;6.20;;;4.93;;
16246;SDS011;8231;50.866;7.944;2022-10-16T03:53:18;5.75;;;3.83;;
16246;SDS011;8231;50.866;7.944;2022-10-16T03:55:46;4.80;;;4.07;;
16246;SDS011;8231;50.866;7.944;2022-10-16T03:58:14;4.60;;;3.85;;
16246;SDS011;8231;50.866;7.944;2022-10-16T04:00:43;7.00;;;4.70;;
16246;SDS011;8231;50.866;7.944;2022-10-16T04:03:12;5.82;;;3.83;;
16246;SDS011;8231;50.866;7.944;2022-10-16T04:05:41;7.97;;;3.55;;
16246;SDS011;8231;50.866;7.944;2022-10-16T04:08:09;8.48;;;3.97;;
16246;SDS011;8231;50.866;7.944;2022-10-16T04:10:38;8.88;;;4.32;;
16246;SDS011;8231;50.866;7.944;2022-10-16T04:13:06;5.78;;;3.70;;
16246;SDS011;8231;50.866;7.944;2022-10-16T04:15:35;4.53;;;3.50;;
16246;SDS011;8231;50.866;7.944;2022-10-16T04:18:03;7.25;;;3.80;;
16246;SDS011;8231;50.866;7.944;2022-10-16T04:20:32;5.53;;;2.80;;
16246;SDS011;8231;50.866;7.944;2022-10-16T04:23:00;3.95;;;3.25;;
16246;SDS011;8231;50.866;7.944;2022-10-16T04:25:29;3.13;;;2.83;;
16246;SDS011;8231;50.866;7.944;2022-10-16T04:27:59;7.28;;;3.60;;
16246;SDS011;8231;50.866;7.944;2022-10-16T04:30:28;3.67;;;3.25;;
16246;SDS011;8231;50.866;7.944;2022-10-16T04:32:56;7.95;;;3.35;;
16246;SDS011;8231;50.866;7.944;2022-10-16T04:35:30;3.28;;;3.00;;
16246;SDS011;8231;50.866;7.944;2022-10-16T04:37:58;2.78;;;2.55;;
16246;SDS011;8231;50.866;7.944;2022-10-16T04:40:26;2.72;;;2.30;;
16246;SDS011;8231;50.866;7.944;2022-10-16T04:42:54;2.33;;;2.13;;
16246;SDS011;8231;50.866;7.944;2022-10-16T04:45:24;4.72;;;2.42;;
16246;SDS011;8231;50.866;7.944;2022-10-16T04:47:52;3.47;;;2.80;;
16246;SDS011;8231;50.866;7.944;2022-10-16T04:50:20;2.58;;;2.28;;
16246;SDS011;8231;50.866;7.944;2022-10-16T04:53:03;5.55;;;2.60;;
16246;SDS011;8231;50.866;7.944;2022-10-16T04:55:32;5.78;;;2.70;;
16246;SDS011;8231;50.866;7.944;2022-10-16T04:58:01;3.05;;;2.83;;
16246;SDS011;8231;50.866;7.944;2022-10-16T05:00:31;3.58;;;3.00;;
16246;SDS011;8231;50.866;7.944;2022-10-16T05:02:59;3.10;;;2.90;;
16246;SDS011;8231;50.866;7.944;2022-10-16T05:05:32;3.63;;;3.35;;
16246;SDS011;8231;50.866;7.944;2022-10-16T05:08:00;2.97;;;2.78;;
16246;SDS011;8231;50.866;7.944;2022-10-16T05:10:29;3.10;;;2.90;;
16246;SDS011;8231;50.866;7.944;2022-10-16T05:12:57;4.57;;;2.92;;
16246;SDS011;8231;50.866;7.944;2022-10-16T05:15:25;5.80;;;2.63;;
16246;SDS011;8231;50.866;7.944;2022-10-16T05:17:55;3.30;;;3.00;;
16246;SDS011;8231;50.866;7.944;2022-10-16T05:20:23;5.03;;;2.72;;
16246;SDS011;8231;50.866;7.944;2022-10-16T05:22:51;2.90;;;2.70;;
16246;SDS011;8231;50.866;7.944;2022-10-16T05:25:20;3.22;;;2.90;;
16246;SDS011;8231;50.866;7.944;2022-10-16T05:27:48;4.65;;;2.55;;
16246;SDS011;8231;50.866;7.944;2022-10-16T05:30:17;4.30;;;2.67;;
16246;SDS011;8231;50.866;7.944;2022-10-16T05:32:47;3.50;;;2.38;;
16246;SDS011;8231;50.866;7.944;2022-10-16T05:35:17;3.85;;;2.55;;
16246;SDS011;8231;50.866;7.944;2022-10-16T05:37:46;4.18;;;2.40;;
16246;SDS011;8231;50.866;7.944;2022-10-16T05:40:15;4.68;;;2.53;;
16246;SDS011;8231;50.866;7.944;2022-10-16T05:42:43;2.63;;;2.42;;
16246;SDS011;8231;50.866;7.944;2022-10-16T05:45:13;5.10;;;2.25;;
16246;SDS011;8231;50.866;7.944;2022-10-16T05:47:41;3.17;;;2.30;;
16246;SDS011;8231;50.866;7.944;2022-10-16T05:50:09;4.03;;;2.40;;
16246;SDS011;8231;50.866;7.944;2022-10-16T05:52:38;4.93;;;2.38;;
16246;SDS011;8231;50.866;7.944;2022-10-16T05:55:07;2.47;;;2.05;;
16246;SDS011;8231;50.866;7.944;2022-10-16T05:57:35;4.75;;;1.83;;
16246;SDS011;8231;50.866;7.944;2022-10-16T06:00:03;3.45;;;1.98;;
16246;SDS011;8231;50.866;7.944;2022-10-16T06:02:38;2.67;;;1.90;;
16246;SDS011;8231;50.866;7.944;2022-10-16T06:05:06;1.88;;;1.77;;
16246;SDS011;8231;50.866;7.944;2022-10-16T06:07:35;3.85;;;2.08;;
16246;SDS011;8231;50.866;7.944;2022-10-16T06:10:05;2.92;;;1.67;;
16246;SDS011;8231;50.866;7.944;2022-10-16T06:12:35;1.85;;;1.70;;
16246;SDS011;8231;50.866;7.944;2022-10-16T06:15:03;3.72;;;1.73;;
16246;SDS011;8231;50.866;7.944;2022-10-16T06:17:32;1.50;;;1.40;;
16246;SDS011;8231;50.866;7.944;2022-10-16T06:20:01;1.20;;;1.10;;
16246;SDS011;8231;50.866;7.944;2022-10-16T06:22:29;1.45;;;1.35;;
16246;SDS011;8231;50.866;7.944;2022-10-16T06:24:57;1.30;;;1.20;;
16246;SDS011;8231;50.866;7.944;2022-10-16T06:27:26;2.67;;;1.25;;
16246;SDS011;8231;50.866;7.944;2022-10-16T06:29:55;4.22;;;1.20;;
16246;SDS011;8231;50.866;7.944;2022-10-16T06:32:23;1.92;;;1.35;;
16246;SDS011;8231;50.866;7.944;2022-10-16T06:34:52;6.35;;;1.25;;
16246;SDS011;8231;50.866;7.944;2022-10-16T06:37:20;1.25;;;1.00;;
16246;SDS011;8231;50.866;7.944;2022-10-16T06:39:48;0.98;;;0.98;;
16246;SDS011;8231;50.866;7.944;2022-10-16T06:42:18;4.13;;;1.25;;
16246;SDS011;8231;50.866;7.944;2022-10-16T06:44:48;1.15;;;1.05;;
16246;SDS011;8231;50.866;7.944;2022-10-16T06:47:16;0.98;;;0.95;;
16246;SDS011;8231;50.866;7.944;2022-10-16T06:49:44;1.73;;;1.10;;
16246;SDS011;8231;50.866;7.944;2022-10-16T06:52:19;2.08;;;0.93;;
16246;SDS011;8231;50.866;7.944;2022-10-16T06:54:47;2.60;;;1.30;;
16246;SDS011;8231;50.866;7.944;2022-10-16T06:57:16;2.50;;;0.90;;
16246;SDS011;8231;50.866;7.944;2022-10-16T06:59:44;1.00;;;0.82;;
16246;SDS011;8231;50.866;7.944;2022-10-16T07:02:17;3.38;;;1.00;;
16246;SDS011;8231;50.866;7.944;2022-10-16T07:04:45;1.90;;;0.85;;
16246;SDS011;8231;50.866;7.944;2022-10-16T07:07:13;1.35;;;1.15;;
16246;SDS011;8231;50.866;7.944;2022-10-16T07:09:41;1.05;;;0.73;;
16246;SDS011;8231;50.866;7.944;2022-10-16T07:12:10;1.63;;;0.80;;
16246;SDS011;8231;50.866;7.944;2022-10-16T07:14:38;2.38;;;0.70;;
16246;SDS011;8231;50.866;7.944;2022-10-16T07:17:06;1.10;;;0.90;;
16246;SDS011;8231;50.866;7.944;2022-10-16T07:19:35;1.10;;;0.82;;
16246;SDS011;8231;50.866;7.944;2022-10-16T07:22:04;2.10;;;0.70;;
16246;SDS011;8231;50.866;7.944;2022-10-16T07:24:33;1.35;;;1.00;;
16246;SDS011;8231;50.866;7.944;2022-10-16T07:27:01;2.80;;;1.27;;
16246;SDS011;8231;50.866;7.944;2022-10-16T07:29:29;0.82;;;0.68;;
16246;SDS011;8231;50.866;7.944;2022-10-16T07:31:57;1.48;;;1.10;;
16246;SDS011;8231;50.866;7.944;2022-10-16T07:34:25;1.33;;;0.70;;
16246;SDS011;8231;50.866;7.944;2022-10-16T07:36:55;1.95;;;0.80;;
16246;SDS011;8231;50.866;7.944;2022-10-16T07:39:23;1.20;;;0.95;;
16246;SDS011;8231;50.866;7.944;2022-10-16T07:41:51;0.63;;;0.57;;
16246;SDS011;8231;50.866;7.944;2022-10-16T07:44:19;0.60;;;0.60;;
16246;SDS011;8231;50.866;7.944;2022-10-16T07:46:47;1.13;;;0.60;;
16246;SDS011;8231;50.866;7.944;2022-10-16T07:49:15;1.20;;;1.10;;
16246;SDS011;8231;50.866;7.944;2022-10-16T07:51:43;0.70;;;0.70;;
16246;SDS011;8231;50.866;7.944;2022-10-16T07:54:13;0.90;;;0.80;;
16246;SDS011;8231;50.866;7.944;2022-10-16T07:56:41;1.05;;;0.95;;
16246;SDS011;8231;50.866;7.944;2022-10-16T07:59:09;1.08;;;0.70;;
16246;SDS011;8231;50.866;7.944;2022-10-16T08:01:38;2.53;;;1.00;;
16246;SDS011;8231;50.866;7.944;2022-10-16T08:04:06;1.05;;;0.93;;
16246;SDS011;8231;50.866;7.944;2022-10-16T08:06:34;0.80;;;0.80;;
16246;SDS011;8231;50.866;7.944;2022-10-16T08:09:03;1.90;;;0.93;;
16246;SDS011;8231;50.866;7.944;2022-10-16T08:11:33;1.00;;;0.90;;
16246;SDS011;8231;50.866;7.944;2022-10-16T08:14:02;1.10;;;1.00;;
16246;SDS011;8231;50.866;7.944;2022-10-16T08:16:30;0.70;;;0.70;;
16246;SDS011;8231;50.866;7.944;2022-10-16T08:18:58;1.55;;;0.68;;
16246;SDS011;8231;50.866;7.944;2022-10-16T08:21:26;0.95;;;0.70;;
16246;SDS011;8231;50.866;7.944;2022-10-16T08:23:54;3.08;;;1.23;;
16246;SDS011;8231;50.866;7.944;2022-10-16T08:26:24;0.75;;;0.70;;
16246;SDS011;8231;50.866;7.944;2022-10-16T08:28:55;2.55;;;1.30;;
16246;SDS011;8231;50.866;7.944;2022-10-16T08:31:23;2.15;;;1.00;;
16246;SDS011;8231;50.866;7.944;2022-10-16T08:33:52;1.50;;;0.80;;
16246;SDS011;8231;50.866;7.944;2022-10-16T08:36:21;3.25;;;0.88;;
16246;SDS011;8231;50.866;7.944;2022-10-16T08:38:49;1.40;;;1.13;;
16246;SDS011;8231;50.866;7.944;2022-10-16T08:41:22;2.80;;;0.95;;
16246;SDS011;8231;50.866;7.944;2022-10-16T08:46:56;0.88;;;0.75;;
16246;SDS011;8231;50.866;7.944;2022-10-16T08:49:35;5.70;;;0.98;;
16246;SDS011;8231;50.866;7.944;2022-10-16T08:52:08;2.17;;;1.13;;
16246;SDS011;8231;50.866;7.944;2022-10-16T08:54:41;1.10;;;1.00;;
16246;SDS011;8231;50.866;7.944;2022-10-16T08:57:11;2.35;;;0.80;;
16246;SDS011;8231;50.866;7.944;2022-10-16T08:59:49;1.38;;;0.77;;
16246;SDS011;8231;50.866;7.944;2022-10-16T09:02:22;1.58;;;1.00;;
16246;SDS011;8231;50.866;7.944;2022-10-16T09:07:50;1.63;;;1.00;;
16246;SDS011;8231;50.866;7.944;2022-10-16T09:10:29;1.42;;;0.93;;
16246;SDS011;8231;50.866;7.944;2022-10-16T09:13:09;2.05;;;1.30;;
16246;SDS011;8231;50.866;7.944;2022-10-16T09:18:43;2.53;;;1.10;;
16246;SDS011;8231;50.866;7.944;2022-10-16T09:21:16;1.90;;;1.10;;
16246;SDS011;8231;50.866;7.944;2022-10-16T09:23:49;0.73;;;0.73;;
16246;SDS011;8231;50.866;7.944;2022-10-16T09:26:18;0.80;;;0.80;;
16246;SDS011;8231;50.866;7.944;2022-10-16T09:28:49;2.45;;;0.73;;
16246;SDS011;8231;50.866;7.944;2022-10-16T09:31:22;2.40;;;0.93;;
16246;SDS011;8231;50.866;7.944;2022-10-16T09:33:52;2.17;;;0.80;;
16246;SDS011;8231;50.866;7.944;2022-10-16T09:36:25;3.78;;;1.00;;
16246;SDS011;8231;50.866;7.944;2022-10-16T09:39:02;1.10;;;1.00;;
16246;SDS011;8231;50.866;7.944;2022-10-16T09:41:33;1.08;;;0.80;;
16246;SDS011;8231;50.866;7.944;2022-10-16T09:44:03;1.65;;;0.80;;
16246;SDS011;8231;50.866;7.944;2022-10-16T09:46:35;2.50;;;0.80;;
16246;SDS011;8231;50.866;7.944;2022-10-16T09:49:17;0.80;;;0.65;;
16246;SDS011;8231;50.866;7.944;2022-10-16T09:51:48;2.92;;;1.10;;
16246;SDS011;8231;50.866;7.944;2022-10-16T09:54:17;7.97;;;1.05;;
16246;SDS011;8231;50.866;7.944;2022-10-16T09:56:47;2.25;;;0.77;;
16246;SDS011;8231;50.866;7.944;2022-10-16T09:59:18;1.27;;;0.70;;
16246;SDS011;8231;50.866;7.944;2022-10-16T10:01:51;2.30;;;0.85;;
16246;SDS011;8231;50.866;7.944;2022-10-16T10:04:22;1.60;;;0.60;;
16246;SDS011;8231;50.866;7.944;2022-10-16T10:06:52;1.95;;;0.50;;
16246;SDS011;8231;50.866;7.944;2022-10-16T10:09:22;1.08;;;0.50;;
16246;SDS011;8231;50.866;7.944;2022-10-16T10:11:52;2.00;;;0.60;;
16246;SDS011;8231;50.866;7.944;2022-10-16T10:14:31;0.85;;;0.73;;
16246;SDS011;8231;50.866;7.944;2022-10-16T10:17:15;1.08;;;0.80;;
16246;SDS011;8231;50.866;7.944;2022-10-16T10:19:46;3.67;;;0.95;;
16246;SDS011;8231;50.866;7.944;2022-10-16T10:22:21;2.25;;;0.98;;
16246;SDS011;8231;50.866;7.944;2022-10-16T10:25:00;0.55;;;0.43;;
16246;SDS011;8231;50.866;7.944;2022-10-16T10:27:55;0.95;;;0.63;;
16246;SDS011;8231;50.866;7.944;2022-10-16T10:30:30;2.33;;;0.52;;
16246;SDS011;8231;50.866;7.944;2022-10-16T10:33:14;0.82;;;0.63;;
16246;SDS011;8231;50.866;7.944;2022-10-16T10:35:49;0.55;;;0.50;;
16246;SDS011;8231;50.866;7.944;2022-10-16T10:38:26;2.40;;;0.68;;
16246;SDS011;8231;50.866;7.944;2022-10-16T10:41:01;0.88;;;0.50;;
16246;SDS011;8231;50.866;7.944;2022-10-16T10:43:43;0.98;;;0.45;;
16246;SDS011;8231;50.866;7.944;2022-10-16T10:46:27;1.40;;;0.50;;
16246;SDS011;8231;50.866;7.944;2022-10-16T10:49:16;2.05;;;0.60;;
16246;SDS011;8231;50.866;7.944;2022-10-16T10:51:59;3.20;;;0.70;;
16246;SDS011;8231;50.866;7.944;2022-10-16T10:54:41;1.77;;;0.73;;
16246;SDS011;8231;50.866;7.944;2022-10-16T10:57:21;1.52;;;0.52;;
16246;SDS011;8231;50.866;7.944;2022-10-16T10:59:55;0.60;;;0.50;;
16246;SDS011;8231;50.866;7.944;2022-10-16T11:02:32;3.60;;;0.75;;
16246;SDS011;8231;50.866;7.944;2022-10-16T11:08:05;1.95;;;0.73;;
16246;SDS011;8231;50.866;7.944;2022-10-16T11:10:42;3.05;;;1.10;;
16246;SDS011;8231;50.866;7.944;2022-10-16T11:13:17;2.95;;;0.70;;
16246;SDS011;8231;50.866;7.944;2022-10-16T11:15:51;1.77;;;0.70;;
16246;SDS011;8231;50.866;7.944;2022-10-16T11:18:24;0.60;;;0.50;;
16246;SDS011;8231;50.866;7.944;2022-10-16T11:20:59;0.68;;;0.68;;
16246;SDS011;8231;50.866;7.944;2022-10-16T11:23:33;0.90;;;0.63;;
16246;SDS011;8231;50.866;7.944;2022-10-16T11:26:10;1.58;;;0.60;;
16246;SDS011;8231;50.866;7.944;2022-10-16T11:28:42;1.85;;;0.47;;
16246;SDS011;8231;50.866;7.944;2022-10-16T11:31:16;2.95;;;0.70;;
16246;SDS011;8231;50.866;7.944;2022-10-16T11:33:51;0.90;;;0.60;;
16246;SDS011;8231;50.866;7.944;2022-10-16T11:36:27;2.10;;;0.70;;
16246;SDS011;8231;50.866;7.944;2022-10-16T11:39:03;1.30;;;0.50;;
16246;SDS011;8231;50.866;7.944;2022-10-16T11:41:41;0.60;;;0.40;;
16246;SDS011;8231;50.866;7.944;2022-10-16T11:44:17;0.68;;;0.50;;
16246;SDS011;8231;50.866;7.944;2022-10-16T11:47:08;1.15;;;0.65;;
16246;SDS011;8231;50.866;7.944;2022-10-16T11:50:03;0.70;;;0.38;;
16246;SDS011;8231;50.866;7.944;2022-10-16T11:52:44;0.73;;;0.63;;
16246;SDS011;8231;50.866;7.944;2022-10-16T11:55:22;0.60;;;0.50;;
16246;SDS011;8231;50.866;7.944;2022-10-16T11:57:57;1.65;;;0.57;;
16246;SDS011;8231;50.866;7.944;2022-10-16T12:00:30;3.05;;;0.80;;
16246;SDS011;8231;50.866;7.944;2022-10-16T12:03:08;0.65;;;0.65;;
16246;SDS011;8231;50.866;7.944;2022-10-16T12:05:50;1.17;;;0.50;;
16246;SDS011;8231;50.866;7.944;2022-10-16T12:08:26;1.70;;;0.50;;
16246;SDS011;8231;50.866;7.944;2022-10-16T12:11:03;1.05;;;0.40;;
16246;SDS011;8231;50.866;7.944;2022-10-16T12:13:35;0.77;;;0.50;;
16246;SDS011;8231;50.866;7.944;2022-10-16T12:16:19;2.40;;;0.70;;
16246;SDS011;8231;50.866;7.944;2022-10-16T12:18:49;0.65;;;0.30;;
16246;SDS011;8231;50.866;7.944;2022-10-16T12:21:30;3.50;;;0.50;;
16246;SDS011;8231;50.866;7.944;2022-10-16T12:24:00;0.88;;;0.63;;
16246;SDS011;8231;50.866;7.944;2022-10-16T12:26:31;2.05;;;0.50;;
16246;SDS011;8231;50.866;7.944;2022-10-16T12:29:11;0.70;;;0.40;;
16246;SDS011;8231;50.866;7.944;2022-10-16T12:31:43;1.05;;;0.60;;
16246;SDS011;8231;50.866;7.944;2022-10-16T12:34:24;2.05;;;0.40;;
16246;SDS011;8231;50.866;7.944;2022-10-16T12:36:56;1.17;;;0.45;;
16246;SDS011;8231;50.866;7.944;2022-10-16T12:39:38;1.23;;;0.40;;
16246;SDS011;8231;50.866;7.944;2022-10-16T12:42:19;1.50;;;0.52;;
16246;SDS011;8231;50.866;7.944;2022-10-16T12:44:50;1.23;;;0.70;;
16246;SDS011;8231;50.866;7.944;2022-10-16T12:47:20;2.67;;;0.70;;
16246;SDS011;8231;50.866;7.944;2022-10-16T12:49:51;2.83;;;0.43;;
16246;SDS011;8231;50.866;7.944;2022-10-16T12:52:24;0.40;;;0.30;;
16246;SDS011;8231;50.866;7.944;2022-10-16T12:54:57;0.88;;;0.40;;
16246;SDS011;8231;50.866;7.944;2022-10-16T12:57:32;0.73;;;0.25;;
16246;SDS011;8231;50.866;7.944;2022-10-16T13:00:11;0.30;;;0.20;;
16246;SDS011;8231;50.866;7.944;2022-10-16T13:02:49;0.47;;;0.43;;
16246;SDS011;8231;50.866;7.944;2022-10-16T13:05:42;0.82;;;0.68;;
16246;SDS011;8231;50.866;7.944;2022-10-16T13:08:25;0.85;;;0.40;;
16246;SDS011;8231;50.866;7.944;2022-10-16T13:11:06;3.22;;;0.65;;
16246;SDS011;8231;50.866;7.944;2022-10-16T13:13:53;1.98;;;0.70;;
16246;SDS011;8231;50.866;7.944;2022-10-16T13:16:39;1.88;;;0.50;;
16246;SDS011;8231;50.866;7.944;2022-10-16T13:19:18;0.73;;;0.50;;
16246;SDS011;8231;50.866;7.944;2022-10-16T13:21:54;2.33;;;0.52;;
16246;SDS011;8231;50.866;7.944;2022-10-16T13:24:36;1.70;;;0.60;;
16246;SDS011;8231;50.866;7.944;2022-10-16T13:27:18;0.57;;;0.40;;
16246;SDS011;8231;50.866;7.944;2022-10-16T13:29:59;3.00;;;0.68;;
16246;SDS011;8231;50.866;7.944;2022-10-16T13:32:29;1.60;;;0.60;;
16246;SDS011;8231;50.866;7.944;2022-10-16T13:34:58;1.13;;;0.60;;
16246;SDS011;8231;50.866;7.944;2022-10-16T13:37:27;1.85;;;0.45;;
16246;SDS011;8231;50.866;7.944;2022-10-16T13:40:02;3.88;;;0.60;;
16246;SDS011;8231;50.866;7.944;2022-10-16T13:42:36;1.85;;;0.50;;
16246;SDS011;8231;50.866;7.944;2022-10-16T13:45:05;1.65;;;0.60;;
16246;SDS011;8231;50.866;7.944;2022-10-16T13:47:44;1.55;;;0.50;;
16246;SDS011;8231;50.866;7.944;2022-10-16T13:50:13;1.92;;;0.32;;
16246;SDS011;8231;50.866;7.944;2022-10-16T13:52:43;1.25;;;0.52;;
16246;SDS011;8231;50.866;7.944;2022-10-16T13:55:12;4.35;;;0.77;;
16246;SDS011;8231;50.866;7.944;2022-10-16T13:57:43;1.48;;;0.50;;
16246;SDS011;8231;50.866;7.944;2022-10-16T14:00:19;4.05;;;0.40;;
16246;SDS011;8231;50.866;7.944;2022-10-16T14:02:50;2.38;;;0.45;;
16246;SDS011;8231;50.866;7.944;2022-10-16T14:05:29;0.52;;;0.40;;
16246;SDS011;8231;50.866;7.944;2022-10-16T14:07:57;1.83;;;0.50;;
16246;SDS011;8231;50.866;7.944;2022-10-16T14:10:27;1.92;;;0.50;;
16246;SDS011;8231;50.866;7.944;2022-10-16T14:12:59;1.00;;;0.35;;
16246;SDS011;8231;50.866;7.944;2022-10-16T14:15:29;2.75;;;1.40;;
16246;SDS011;8231;50.866;7.944;2022-10-16T14:17:59;0.68;;;0.50;;
16246;SDS011;8231;50.866;7.944;2022-10-16T14:20:28;1.88;;;0.90;;
16246;SDS011;8231;50.866;7.944;2022-10-16T14:22:59;1.30;;;1.10;;
16246;SDS011;8231;50.866;7.944;2022-10-16T14:25:29;1.90;;;0.75;;
16246;SDS011;8231;50.866;7.944;2022-10-16T14:28:00;4.97;;;1.15;;
16246;SDS011;8231;50.866;7.944;2022-10-16T14:30:30;1.48;;;0.90;;
16246;SDS011;8231;50.866;7.944;2022-10-16T14:33:00;1.83;;;0.80;;
16246;SDS011;8231;50.866;7.944;2022-10-16T14:35:30;1.08;;;0.70;;
16246;SDS011;8231;50.866;7.944;2022-10-16T14:38:01;0.52;;;0.50;;
16246;SDS011;8231;50.866;7.944;2022-10-16T14:40:31;1.52;;;0.90;;
16246;SDS011;8231;50.866;7.944;2022-10-16T14:43:02;1.13;;;0.75;;
16246;SDS011;8231;50.866;7.944;2022-10-16T14:45:32;2.22;;;0.70;;
16246;SDS011;8231;50.866;7.944;2022-10-16T14:48:03;0.95;;;0.65;;
16246;SDS011;8231;50.866;7.944;2022-10-16T14:50:34;1.20;;;0.68;;
16246;SDS011;8231;50.866;7.944;2022-10-16T14:53:04;0.82;;;0.70;;
16246;SDS011;8231;50.866;7.944;2022-10-16T14:55:38;2.75;;;0.70;;
16246;SDS011;8231;50.866;7.944;2022-10-16T14:58:10;3.03;;;0.60;;
16246;SDS011;8231;50.866;7.944;2022-10-16T15:00:42;2.35;;;0.70;;
16246;SDS011;8231;50.866;7.944;2022-10-16T15:03:10;1.05;;;0.50;;
16246;SDS011;8231;50.866;7.944;2022-10-16T15:05:39;0.63;;;0.50;;
16246;SDS011;8231;50.866;7.944;2022-10-16T15:08:07;0.80;;;0.38;;
16246;SDS011;8231;50.866;7.944;2022-10-16T15:10:37;1.70;;;0.55;;
16246;SDS011;8231;50.866;7.944;2022-10-16T15:13:09;1.30;;;0.60;;
16246;SDS011;8231;50.866;7.944;2022-10-16T15:15:41;4.78;;;0.80;;
16246;SDS011;8231;50.866;7.944;2022-10-16T15:18:10;0.82;;;0.57;;
16246;SDS011;8231;50.866;7.944;2022-10-16T15:20:40;2.28;;;1.13;;
16246;SDS011;8231;50.866;7.944;2022-10-16T15:23:11;3.72;;;0.95;;
16246;SDS011;8231;50.866;7.944;2022-10-16T15:25:43;5.20;;;1.10;;
16246;SDS011;8231;50.866;7.944;2022-10-16T15:28:14;1.77;;;0.93;;
16246;SDS011;8231;50.866;7.944;2022-10-16T15:30:43;1.52;;;0.85;;
16246;SDS011;8231;50.866;7.944;2022-10-16T15:33:13;2.35;;;0.50;;
16246;SDS011;8231;50.866;7.944;2022-10-16T15:35:45;5.07;;;0.73;;
16246;SDS011;8231;50.866;7.944;2022-10-16T15:38:15;1.73;;;0.50;;
16246;SDS011;8231;50.866;7.944;2022-10-16T15:40:45;1.45;;;0.88;;